createdAt,value
2023-04-08T00:00:59.518Z,12.48
2023-04-08T00:03:26.422Z,8.55
2023-04-08T00:05:53.200Z,12.00
2023-04-08T00:08:20.041Z,10.82
2023-04-08T00:10:46.726Z,12.60
2023-04-08T00:13:14.970Z,10.82
2023-04-08T00:15:41.839Z,10.20
2023-04-08T00:18:08.619Z,12.95
2023-04-08T00:20:35.461Z,11.18
2023-04-08T00:23:02.159Z,12.52
2023-04-08T00:25:28.927Z,13.10
2023-04-08T00:27:55.758Z,13.30
2023-04-08T00:30:22.500Z,11.50
2023-04-08T00:32:49.258Z,11.35
2023-04-08T00:35:16.294Z,14.07
2023-04-08T00:37:43.107Z,15.45
2023-04-08T00:40:09.854Z,15.02
2023-04-08T00:42:36.797Z,12.20
2023-04-08T00:45:03.891Z,13.02
2023-04-08T00:47:30.659Z,14.57
2023-04-08T00:49:57.553Z,14.13
2023-04-08T00:52:24.280Z,12.70
2023-04-08T00:54:51.118Z,11.77
2023-04-08T00:57:17.906Z,14.48
2023-04-08T00:59:44.668Z,14.95
2023-04-08T01:02:11.522Z,15.98
2023-04-08T01:04:38.351Z,13.23
2023-04-08T01:07:05.109Z,11.05
2023-04-08T01:09:31.774Z,10.85
2023-04-08T01:11:58.409Z,11.00
2023-04-08T01:14:25.083Z,10.40
2023-04-08T01:16:51.703Z,12.35
2023-04-08T01:19:18.380Z,12.80
2023-04-08T01:21:45.025Z,10.95
2023-04-08T01:24:11.638Z,10.00
2023-04-08T01:26:38.297Z,9.63
2023-04-08T01:29:05.002Z,10.45
2023-04-08T01:31:32.006Z,11.30
2023-04-08T01:33:58.891Z,12.57
2023-04-08T01:36:25.602Z,11.40
2023-04-08T01:38:52.302Z,10.13
2023-04-08T01:41:18.953Z,9.43
2023-04-08T01:43:45.656Z,10.95
2023-04-08T01:46:12.422Z,13.45
2023-04-08T01:48:39.070Z,10.95
2023-04-08T01:51:05.676Z,10.65
2023-04-08T01:53:32.314Z,10.75
2023-04-08T01:55:58.955Z,10.27
2023-04-08T01:58:25.719Z,9.73
2023-04-08T02:00:52.466Z,9.35
2023-04-08T02:03:19.555Z,13.15
2023-04-08T02:05:46.401Z,12.45
2023-04-08T02:08:13.329Z,12.20
2023-04-08T02:10:39.954Z,11.07
2023-04-08T02:13:06.625Z,10.82
2023-04-08T02:15:33.296Z,11.30
2023-04-08T02:17:59.985Z,12.30
2023-04-08T02:20:26.623Z,12.57
2023-04-08T02:22:53.305Z,11.57
2023-04-08T02:25:19.946Z,8.60
2023-04-08T02:27:48.795Z,10.35
2023-04-08T02:30:15.729Z,6.78
2023-04-08T02:32:42.488Z,9.95
2023-04-08T02:35:09.335Z,9.40
2023-04-08T02:37:36.140Z,9.10
2023-04-08T02:40:02.749Z,8.68
2023-04-08T02:42:29.384Z,7.60
2023-04-08T02:44:56.102Z,10.13
2023-04-08T02:47:22.923Z,8.90
2023-04-08T02:49:52.593Z,8.20
2023-04-08T02:52:19.246Z,11.20
2023-04-08T02:54:45.931Z,9.93
2023-04-08T02:57:13.133Z,10.10
2023-04-08T02:59:40.972Z,12.02
2023-04-08T03:02:07.685Z,11.10
2023-04-08T03:04:34.382Z,8.98
2023-04-08T03:07:01.035Z,8.02
2023-04-08T03:09:27.763Z,10.48
2023-04-08T03:11:55.034Z,11.02
2023-04-08T03:14:22.301Z,10.00
2023-04-08T03:16:49.027Z,8.65
2023-04-08T03:19:16.301Z,7.68
2023-04-08T03:21:42.982Z,6.68
2023-04-08T03:24:09.607Z,9.55
2023-04-08T03:26:36.201Z,8.93
2023-04-08T03:29:02.818Z,10.63
2023-04-08T03:31:29.497Z,10.50
2023-04-08T03:33:56.295Z,11.38
2023-04-08T03:36:22.877Z,8.75
2023-04-08T03:38:49.792Z,11.07
2023-04-08T03:41:16.755Z,7.85
2023-04-08T03:43:43.468Z,9.75
2023-04-08T03:46:10.180Z,8.35
2023-04-08T03:48:36.789Z,9.05
2023-04-08T03:51:03.410Z,9.27
2023-04-08T03:53:30.049Z,8.43
2023-04-08T03:55:56.718Z,9.55
2023-04-08T03:58:23.366Z,11.32
2023-04-08T04:00:50.029Z,9.63
2023-04-08T04:03:16.877Z,8.82
2023-04-08T04:05:43.622Z,9.05
2023-04-08T04:08:10.329Z,9.30
2023-04-08T04:10:37.012Z,6.70
2023-04-08T04:13:03.591Z,7.47
2023-04-08T04:15:30.391Z,8.85
2023-04-08T04:17:57.187Z,6.32
2023-04-08T04:20:26.037Z,9.10
2023-04-08T04:22:52.750Z,8.95
2023-04-08T04:25:19.507Z,8.68
2023-04-08T04:27:46.150Z,7.68
2023-04-08T04:30:15.655Z,11.13
2023-04-08T04:32:43.144Z,7.30
2023-04-08T04:35:09.822Z,8.15
2023-04-08T04:37:36.591Z,8.65
2023-04-08T04:40:03.192Z,12.35
2023-04-08T04:42:29.828Z,8.57
2023-04-08T04:44:56.457Z,10.05
2023-04-08T04:47:23.339Z,9.60
2023-04-08T04:49:50.067Z,7.45
2023-04-08T04:52:16.798Z,8.93
2023-04-08T04:54:43.497Z,8.27
2023-04-08T04:57:11.387Z,6.53
2023-04-08T04:59:38.198Z,7.30
2023-04-08T05:02:04.899Z,10.57
2023-04-08T05:04:31.712Z,8.35
2023-04-08T05:06:58.362Z,8.95
2023-04-08T05:09:25.015Z,9.93
2023-04-08T05:11:51.772Z,12.75
2023-04-08T05:14:18.369Z,9.23
2023-04-08T05:16:45.018Z,9.10
2023-04-08T05:19:11.607Z,10.20
2023-04-08T05:21:38.193Z,6.85
2023-04-08T05:24:04.826Z,8.18
2023-04-08T05:26:31.823Z,9.68
2023-04-08T05:28:58.435Z,8.70
2023-04-08T05:31:25.230Z,8.45
2023-04-08T05:33:51.905Z,11.27
2023-04-08T05:36:18.540Z,9.48
2023-04-08T05:38:45.593Z,8.45
2023-04-08T05:41:12.291Z,8.73
2023-04-08T05:43:38.981Z,9.18
2023-04-08T05:46:05.781Z,8.57
2023-04-08T05:48:32.387Z,9.70
2023-04-08T05:50:59.055Z,8.82
2023-04-08T05:53:26.271Z,8.98
2023-04-08T05:55:52.958Z,9.85
2023-04-08T05:58:19.592Z,9.18
2023-04-08T06:00:46.403Z,8.57
2023-04-08T06:03:13.520Z,9.52
2023-04-08T06:05:40.641Z,8.15
2023-04-08T06:08:07.284Z,8.80
2023-04-08T06:10:33.892Z,7.03
2023-04-08T06:13:00.600Z,10.20
2023-04-08T06:15:28.000Z,7.18
2023-04-08T06:17:54.742Z,8.48
2023-04-08T06:20:21.486Z,8.23
2023-04-08T06:22:48.205Z,6.82
2023-04-08T06:25:14.862Z,9.45
2023-04-08T06:27:41.568Z,8.80
2023-04-08T06:30:08.210Z,11.13
2023-04-08T06:32:35.088Z,6.53
2023-04-08T06:35:01.923Z,10.70
2023-04-08T06:37:28.624Z,8.15
2023-04-08T06:39:55.500Z,7.15
2023-04-08T06:42:23.162Z,8.43
2023-04-08T06:44:49.894Z,6.65
2023-04-08T06:47:17.453Z,9.63
2023-04-08T06:49:44.100Z,8.57
2023-04-08T06:52:11.792Z,8.15
2023-04-08T06:54:39.738Z,8.07
2023-04-08T06:57:06.490Z,7.78
2023-04-08T06:59:33.153Z,9.60
2023-04-08T07:02:00.488Z,10.13
2023-04-08T07:04:27.281Z,10.02
2023-04-08T07:06:53.890Z,11.05
2023-04-08T07:09:20.538Z,10.90
2023-04-08T07:11:47.211Z,9.70
2023-04-08T07:14:14.008Z,11.20
2023-04-08T07:16:40.765Z,10.23
2023-04-08T07:19:07.432Z,9.93
2023-04-08T07:21:34.098Z,10.40
2023-04-08T07:24:00.772Z,11.90
2023-04-08T07:26:28.528Z,9.50
2023-04-08T07:28:55.377Z,10.00
2023-04-08T07:31:22.040Z,8.63
2023-04-08T07:33:48.716Z,10.65
2023-04-08T07:36:15.685Z,12.38
2023-04-08T07:38:42.302Z,11.57
2023-04-08T07:41:08.878Z,11.38
2023-04-08T07:43:37.254Z,11.48
2023-04-08T07:46:04.703Z,10.38
2023-04-08T07:48:31.398Z,11.40
2023-04-08T07:51:10.084Z,11.82
2023-04-08T07:53:38.056Z,8.10
2023-04-08T07:56:04.721Z,9.95
2023-04-08T07:58:32.280Z,8.63
2023-04-08T08:00:59.592Z,8.18
2023-04-08T08:03:26.499Z,8.35
2023-04-08T08:05:53.307Z,8.27
2023-04-08T08:08:19.972Z,9.75
2023-04-08T08:10:46.585Z,9.27
2023-04-08T08:13:17.086Z,8.27
2023-04-08T08:15:43.732Z,9.10
2023-04-08T08:18:10.590Z,9.60
2023-04-08T08:20:37.212Z,8.23
2023-04-08T08:23:03.853Z,7.72
2023-04-08T08:25:30.403Z,8.70
2023-04-08T08:27:57.117Z,6.43
2023-04-08T08:30:23.774Z,6.07
2023-04-08T08:32:52.238Z,8.63
2023-04-08T08:35:18.955Z,6.25
2023-04-08T08:37:45.604Z,10.50
2023-04-08T08:40:12.239Z,7.68
2023-04-08T08:42:38.986Z,8.05
2023-04-08T08:45:07.107Z,10.25
2023-04-08T08:47:33.832Z,9.27
2023-04-08T08:50:00.782Z,8.43
2023-04-08T08:52:27.416Z,11.70
2023-04-08T08:54:54.053Z,8.75
2023-04-08T08:57:20.695Z,8.77
2023-04-08T08:59:47.814Z,8.13
2023-04-08T09:02:14.559Z,9.55
2023-04-08T09:04:41.774Z,8.90
2023-04-08T09:07:08.585Z,7.07
2023-04-08T09:09:35.400Z,6.60
2023-04-08T09:12:02.067Z,8.98
2023-04-08T09:14:29.004Z,6.18
2023-04-08T09:16:55.709Z,7.25
2023-04-08T09:19:22.388Z,5.93
2023-04-08T09:21:53.676Z,5.55
2023-04-08T09:24:20.381Z,6.63
2023-04-08T09:26:48.053Z,5.43
2023-04-08T09:29:25.637Z,5.95
2023-04-08T09:31:53.184Z,5.00
2023-04-08T09:34:21.949Z,5.80
2023-04-08T09:36:49.297Z,5.32
2023-04-08T09:39:16.110Z,5.70
2023-04-08T09:41:42.803Z,6.35
2023-04-08T09:44:09.584Z,5.35
2023-04-08T09:46:36.565Z,5.07
2023-04-08T09:49:03.305Z,4.90
2023-04-08T09:51:29.937Z,3.92
2023-04-08T09:53:57.505Z,4.35
2023-04-08T09:56:24.254Z,4.03
2023-04-08T09:58:51.038Z,4.55
2023-04-08T10:01:17.727Z,4.22
2023-04-08T10:03:44.486Z,3.95
2023-04-08T10:06:12.080Z,4.78
2023-04-08T10:08:38.790Z,4.00
2023-04-08T10:11:05.524Z,3.67
2023-04-08T10:13:32.778Z,3.40
2023-04-08T10:15:59.451Z,3.22
2023-04-08T10:18:26.074Z,3.85
2023-04-08T10:20:52.991Z,4.13
2023-04-08T10:23:21.176Z,4.40
2023-04-08T10:25:48.308Z,4.20
2023-04-08T10:28:15.488Z,4.93
2023-04-08T10:30:42.142Z,3.92
2023-04-08T10:33:09.232Z,3.80
2023-04-08T10:35:35.903Z,5.38
2023-04-08T10:38:02.798Z,4.55
2023-04-08T10:40:29.384Z,3.85
2023-04-08T10:42:56.429Z,4.57
2023-04-08T10:45:23.060Z,5.03
2023-04-08T10:47:49.780Z,4.38
2023-04-08T10:50:16.654Z,4.65
2023-04-08T10:52:43.278Z,4.53
2023-04-08T10:55:09.920Z,4.55
2023-04-08T10:57:37.002Z,4.90
2023-04-08T11:00:05.810Z,6.40
2023-04-08T11:02:32.894Z,4.70
2023-04-08T11:04:59.603Z,5.35
2023-04-08T11:07:27.144Z,4.93
2023-04-08T11:09:53.805Z,4.68
2023-04-08T11:12:21.657Z,5.30
2023-04-08T11:14:49.627Z,5.53
2023-04-08T11:17:16.480Z,4.95
2023-04-08T11:19:43.273Z,4.35
2023-04-08T11:22:10.707Z,3.47
2023-04-08T11:24:37.779Z,2.97
2023-04-08T11:27:04.460Z,4.97
2023-04-08T11:29:31.118Z,5.38
2023-04-08T11:31:57.777Z,4.18
2023-04-08T11:34:24.713Z,3.75
2023-04-08T11:36:51.373Z,3.53
2023-04-08T11:39:18.007Z,3.17
2023-04-08T11:41:44.598Z,3.97
2023-04-08T11:44:11.493Z,3.72
2023-04-08T11:46:38.173Z,3.33
2023-04-08T11:49:04.907Z,3.92
2023-04-08T11:51:31.606Z,4.53
2023-04-08T11:53:58.341Z,3.83
2023-04-08T11:56:25.128Z,3.65
2023-04-08T11:58:52.053Z,3.97
2023-04-08T12:01:18.772Z,3.67
2023-04-08T12:03:45.574Z,4.35
2023-04-08T12:06:12.276Z,3.50
2023-04-08T12:08:38.938Z,4.05
2023-04-08T12:11:18.827Z,3.00
2023-04-08T12:16:12.867Z,3.78
2023-04-08T12:18:39.616Z,3.53
2023-04-08T12:21:06.297Z,3.78
2023-04-08T12:23:32.924Z,4.03
2023-04-08T12:25:59.568Z,3.65
2023-04-08T12:28:26.296Z,3.97
2023-04-08T12:30:53.320Z,3.67
2023-04-08T12:33:20.034Z,3.95
2023-04-08T12:35:47.578Z,3.72
2023-04-08T12:38:14.455Z,4.00
2023-04-08T12:40:41.293Z,2.97
2023-04-08T12:43:07.947Z,2.90
2023-04-08T12:45:34.598Z,2.85
2023-04-08T12:48:01.496Z,3.03
2023-04-08T12:50:28.271Z,3.22
2023-04-08T12:52:54.965Z,2.85
2023-04-08T12:55:24.996Z,3.05
2023-04-08T12:57:51.811Z,2.72
2023-04-08T13:00:18.486Z,3.85
2023-04-08T13:02:45.231Z,2.95
2023-04-08T13:05:11.946Z,3.28
2023-04-08T13:07:38.610Z,3.05
2023-04-08T13:10:07.117Z,3.25
2023-04-08T13:12:33.852Z,2.40
2023-04-08T13:15:01.410Z,2.22
2023-04-08T13:17:28.498Z,2.67
2023-04-08T13:19:55.587Z,3.08
2023-04-08T13:22:22.272Z,2.40
2023-04-08T13:24:49.105Z,2.63
2023-04-08T13:27:15.789Z,3.03
2023-04-08T13:29:42.496Z,3.33
2023-04-08T13:32:09.320Z,3.40
2023-04-08T13:34:36.196Z,3.85
2023-04-08T13:37:03.277Z,4.05
2023-04-08T13:39:30.017Z,2.47
2023-04-08T13:41:57.089Z,3.63
2023-04-08T13:44:24.934Z,2.88
2023-04-08T13:46:51.627Z,3.45
2023-04-08T13:49:18.471Z,3.92
2023-04-08T13:51:45.070Z,3.40
2023-04-08T13:54:11.640Z,3.90
2023-04-08T13:56:38.287Z,3.35
2023-04-08T13:59:05.561Z,4.25
2023-04-08T14:01:32.480Z,3.22
2023-04-08T14:03:59.155Z,3.47
2023-04-08T14:06:26.685Z,2.95
2023-04-08T14:08:53.684Z,3.25
2023-04-08T14:11:21.365Z,3.75
2023-04-08T14:13:48.192Z,2.75
2023-04-08T14:16:16.665Z,4.30
2023-04-08T14:18:43.253Z,3.25
2023-04-08T14:21:09.876Z,3.15
2023-04-08T14:23:36.509Z,3.28
2023-04-08T14:26:03.180Z,3.67
2023-04-08T14:28:29.794Z,3.38
2023-04-08T14:30:56.544Z,3.72
2023-04-08T14:33:23.202Z,3.13
2023-04-08T14:35:49.766Z,2.63
2023-04-08T14:38:17.881Z,2.70
2023-04-08T14:40:44.485Z,2.80
2023-04-08T14:43:11.089Z,2.80
2023-04-08T14:45:37.725Z,3.35
2023-04-08T14:48:04.351Z,3.17
2023-04-08T14:50:31.757Z,2.70
2023-04-08T14:52:58.803Z,3.22
2023-04-08T14:55:25.960Z,3.95
2023-04-08T14:57:52.642Z,3.33
2023-04-08T15:00:19.433Z,2.80
2023-04-08T15:02:46.123Z,3.22
2023-04-08T15:05:12.841Z,3.60
2023-04-08T15:07:39.497Z,3.45
2023-04-08T15:10:06.208Z,3.75
2023-04-08T15:12:33.416Z,3.70
2023-04-08T15:15:00.157Z,3.15
2023-04-08T15:17:26.882Z,3.05
2023-04-08T15:19:53.553Z,2.35
2023-04-08T15:22:20.196Z,2.55
2023-04-08T15:24:48.087Z,3.17
2023-04-08T15:27:16.006Z,3.85
2023-04-08T15:29:42.980Z,3.05
2023-04-08T15:32:09.644Z,3.17
2023-04-08T15:34:36.444Z,3.40
2023-04-08T15:37:03.101Z,4.05
2023-04-08T15:39:29.735Z,4.68
2023-04-08T15:41:56.775Z,4.25
2023-04-08T15:44:24.200Z,4.82
2023-04-08T15:46:51.114Z,4.50
2023-04-08T15:49:17.794Z,4.63
2023-04-08T15:51:44.833Z,4.25
2023-04-08T15:54:11.759Z,4.47
2023-04-08T15:56:38.491Z,4.45
2023-04-08T15:59:05.138Z,4.22
2023-04-08T16:01:33.229Z,3.95
2023-04-08T16:04:00.121Z,3.63
2023-04-08T16:06:26.916Z,3.83
2023-04-08T16:08:53.531Z,4.32
2023-04-08T16:11:20.377Z,3.90
2023-04-08T16:13:47.204Z,3.38
2023-04-08T16:16:13.930Z,4.20
2023-04-08T16:18:41.953Z,4.22
2023-04-08T16:21:08.804Z,3.55
2023-04-08T16:23:37.638Z,3.17
2023-04-08T16:26:04.320Z,4.18
2023-04-08T16:28:31.053Z,3.53
2023-04-08T16:30:57.769Z,3.90
2023-04-08T16:33:29.873Z,4.03
2023-04-08T16:35:57.006Z,3.70
2023-04-08T16:38:24.141Z,3.75
2023-04-08T16:40:50.840Z,3.38
2023-04-08T16:43:17.531Z,3.47
2023-04-08T16:45:44.230Z,3.30
2023-04-08T16:48:12.640Z,4.05
2023-04-08T16:50:39.317Z,3.08
2023-04-08T16:53:06.075Z,4.47
2023-04-08T16:55:32.694Z,3.78
2023-04-08T16:57:59.280Z,5.72
2023-04-08T17:00:26.040Z,2.85
2023-04-08T17:02:57.288Z,3.67
2023-04-08T17:05:24.030Z,4.40
2023-04-08T17:07:51.515Z,4.07
2023-04-08T17:10:18.825Z,3.33
2023-04-08T17:12:45.621Z,3.80
2023-04-08T17:15:12.326Z,3.45
2023-04-08T17:17:38.968Z,3.92
2023-04-08T17:20:05.642Z,3.47
2023-04-08T17:22:32.489Z,3.45
2023-04-08T17:24:59.112Z,3.05
2023-04-08T17:27:25.710Z,4.00
2023-04-08T17:29:57.688Z,3.97
2023-04-08T17:32:24.794Z,3.83
2023-04-08T17:34:51.912Z,3.28
2023-04-08T17:37:18.551Z,3.33
2023-04-08T17:39:45.179Z,4.78
2023-04-08T17:42:11.855Z,3.90
2023-04-08T17:44:38.503Z,3.88
2023-04-08T17:47:05.714Z,3.65
2023-04-08T17:49:32.363Z,4.50
2023-04-08T17:51:59.026Z,4.30
2023-04-08T17:54:25.706Z,3.63
2023-04-08T17:56:52.431Z,3.47
2023-04-08T17:59:19.098Z,3.22
2023-04-08T18:01:45.903Z,4.35
2023-04-08T18:04:13.912Z,4.00
2023-04-08T18:06:40.733Z,3.35
2023-04-08T18:09:07.347Z,3.58
2023-04-08T18:11:33.968Z,5.55
2023-04-08T18:14:00.735Z,3.30
2023-04-08T18:16:27.494Z,3.60
2023-04-08T18:18:54.186Z,3.08
2023-04-08T18:21:22.068Z,4.28
2023-04-08T18:23:49.014Z,3.58
2023-04-08T18:26:15.818Z,4.80
2023-04-08T18:28:42.387Z,3.25
2023-04-08T18:31:09.026Z,3.30
2023-04-08T18:33:35.704Z,3.67
2023-04-08T18:36:02.309Z,3.35
2023-04-08T18:38:29.083Z,3.25
2023-04-08T18:40:55.713Z,3.25
2023-04-08T18:43:23.299Z,3.67
2023-04-08T18:45:49.938Z,3.13
2023-04-08T18:48:16.599Z,4.10
2023-04-08T18:50:43.185Z,3.72
2023-04-08T18:53:09.793Z,4.18
2023-04-08T18:55:38.736Z,3.80
2023-04-08T18:58:05.475Z,4.38
2023-04-08T19:00:32.165Z,4.70
2023-04-08T19:02:58.915Z,3.72
2023-04-08T19:05:25.851Z,5.10
2023-04-08T19:07:53.124Z,5.00
2023-04-08T19:10:19.784Z,4.65
2023-04-08T19:12:46.780Z,4.18
2023-04-08T19:15:13.550Z,5.00
2023-04-08T19:17:40.539Z,5.32
2023-04-08T19:20:07.429Z,4.10
2023-04-08T19:22:34.503Z,4.90
2023-04-08T19:25:01.217Z,5.22
2023-04-08T19:27:28.023Z,5.65
2023-04-08T19:29:55.320Z,4.97
2023-04-08T19:32:22.088Z,6.60
2023-04-08T19:34:48.840Z,6.80
2023-04-08T19:37:15.504Z,6.00
2023-04-08T19:39:42.374Z,5.15
2023-04-08T19:42:10.894Z,6.03
2023-04-08T19:44:37.754Z,5.50
2023-04-08T19:47:04.629Z,6.28
2023-04-08T19:49:31.363Z,5.78
2023-04-08T19:51:58.628Z,5.68
2023-04-08T19:54:25.372Z,4.90
2023-04-08T19:56:52.141Z,7.78
2023-04-08T19:59:19.457Z,7.28
2023-04-08T20:01:46.248Z,7.43
2023-04-08T20:04:13.128Z,6.97
2023-04-08T20:06:40.360Z,9.35
2023-04-08T20:09:07.143Z,7.28
2023-04-08T20:11:33.854Z,8.93
2023-04-08T20:14:00.809Z,10.18
2023-04-08T20:16:27.766Z,9.98
2023-04-08T20:18:54.599Z,9.15
2023-04-08T20:21:21.288Z,11.60
2023-04-08T20:23:47.987Z,12.40
2023-04-08T20:26:14.786Z,9.73
2023-04-08T20:28:41.871Z,10.18
2023-04-08T20:31:09.420Z,12.57
2023-04-08T20:33:38.301Z,11.57
2023-04-08T20:36:04.996Z,12.48
2023-04-08T20:38:35.204Z,11.80
2023-04-08T20:41:02.240Z,9.65
2023-04-08T20:43:29.077Z,12.40
2023-04-08T20:45:55.800Z,12.95
2023-04-08T20:48:22.552Z,12.73
2023-04-08T20:50:49.169Z,12.10
2023-04-08T20:53:17.224Z,13.00
2023-04-08T20:55:43.813Z,13.23
2023-04-08T20:58:11.096Z,12.20
2023-04-08T21:00:37.783Z,15.52
2023-04-08T21:03:04.652Z,15.07
2023-04-08T21:05:31.418Z,14.38
2023-04-08T21:07:58.126Z,14.18
2023-04-08T21:10:24.842Z,14.40
2023-04-08T21:12:51.471Z,13.93
2023-04-08T21:15:18.182Z,16.33
2023-04-08T21:17:44.932Z,12.95
2023-04-08T21:20:11.726Z,17.25
2023-04-08T21:22:38.604Z,12.27
2023-04-08T21:25:05.613Z,14.90
2023-04-08T21:27:32.326Z,16.23
2023-04-08T21:29:59.097Z,15.63
2023-04-08T21:32:29.539Z,19.60
2023-04-08T21:34:56.857Z,18.23
2023-04-08T21:37:23.535Z,21.35
2023-04-08T21:39:50.465Z,20.27
2023-04-08T21:42:17.140Z,18.88
2023-04-08T21:44:43.732Z,21.58
2023-04-08T21:47:10.655Z,19.92
2023-04-08T21:49:37.524Z,22.17
2023-04-08T21:52:04.982Z,24.23
2023-04-08T21:54:31.658Z,21.60
2023-04-08T21:56:58.357Z,21.17
2023-04-08T21:59:25.083Z,20.70
2023-04-08T22:01:52.030Z,22.52
2023-04-08T22:04:19.664Z,17.02
2023-04-08T22:06:49.166Z,20.63
2023-04-08T22:09:16.597Z,19.00
2023-04-08T22:11:43.287Z,18.23
2023-04-08T22:14:10.143Z,21.70
2023-04-08T22:16:36.817Z,23.35
2023-04-08T22:19:03.600Z,20.02
2023-04-08T22:21:30.272Z,22.35
2023-04-08T22:23:56.958Z,25.70
2023-04-08T22:26:23.694Z,26.27
2023-04-08T22:28:50.923Z,24.08
2023-04-08T22:31:17.951Z,25.05
2023-04-08T22:33:46.221Z,23.77
2023-04-08T22:36:12.912Z,18.73
2023-04-08T22:38:39.631Z,19.30
2023-04-08T22:41:06.529Z,23.58
2023-04-08T22:43:33.203Z,23.05
2023-04-08T22:45:59.948Z,18.42
2023-04-08T22:48:26.584Z,19.02
2023-04-08T22:50:53.227Z,17.73
2023-04-08T22:53:19.916Z,19.35
2023-04-08T22:55:46.569Z,20.58
2023-04-08T22:58:13.348Z,18.77
2023-04-08T23:00:40.064Z,20.83
2023-04-08T23:03:06.826Z,18.23
2023-04-08T23:05:33.570Z,25.83
2023-04-08T23:08:00.410Z,16.00
2023-04-08T23:10:27.046Z,19.45
2023-04-08T23:12:53.723Z,23.00
2023-04-08T23:15:20.697Z,20.80
2023-04-08T23:17:47.357Z,22.15
2023-04-08T23:20:14.175Z,19.88
2023-04-08T23:22:40.864Z,18.65
2023-04-08T23:25:07.584Z,21.83
2023-04-08T23:27:34.281Z,20.08
2023-04-08T23:30:05.608Z,16.92
2023-04-08T23:32:32.701Z,21.75
2023-04-08T23:34:59.494Z,17.25
2023-04-08T23:37:26.319Z,19.67
2023-04-08T23:39:53.012Z,15.77
2023-04-08T23:42:19.746Z,15.50
2023-04-08T23:44:46.424Z,14.68
2023-04-08T23:47:13.099Z,20.25
2023-04-08T23:49:39.756Z,17.00
2023-04-08T23:52:06.453Z,16.27
2023-04-08T23:54:33.940Z,14.55
2023-04-08T23:57:01.821Z,17.05
2023-04-08T23:59:31.466Z,13.48
